createdAt,value
2022-11-14T00:00:38.836Z,7.64
2022-11-14T00:03:15.481Z,7.67
2022-11-14T00:05:48.143Z,7.72
2022-11-14T00:08:20.404Z,7.80
2022-11-14T00:10:52.193Z,7.69
2022-11-14T00:13:25.071Z,7.56
2022-11-14T00:16:00.864Z,7.54
2022-11-14T00:18:31.898Z,7.70
2022-11-14T00:21:02.513Z,7.72
2022-11-14T00:23:32.509Z,7.71
2022-11-14T00:26:02.947Z,7.66
2022-11-14T00:28:35.631Z,7.55
2022-11-14T00:31:06.098Z,7.73
2022-11-14T00:33:36.550Z,7.71
2022-11-14T00:36:07.669Z,7.62
2022-11-14T00:38:37.779Z,7.69
2022-11-14T00:41:08.394Z,7.82
2022-11-14T00:43:41.212Z,7.74
2022-11-14T00:46:28.057Z,7.72
2022-11-14T00:49:02.571Z,7.81
2022-11-14T00:51:32.979Z,7.67
2022-11-14T00:54:03.005Z,7.61
2022-11-14T00:56:33.487Z,7.58
2022-11-14T00:59:06.150Z,7.64
2022-11-14T01:01:36.799Z,7.56
2022-11-14T01:04:07.236Z,7.60
2022-11-14T01:06:37.926Z,7.58
2022-11-14T01:09:07.984Z,7.47
2022-11-14T01:11:38.448Z,7.47
2022-11-14T01:14:12.772Z,7.38
2022-11-14T01:16:43.193Z,7.36
2022-11-14T01:19:13.231Z,7.24
2022-11-14T01:21:43.689Z,7.32
2022-11-14T01:24:13.835Z,7.35
2022-11-14T01:26:44.332Z,7.39
2022-11-14T01:29:17.130Z,7.40
2022-11-14T01:31:47.463Z,7.25
2022-11-14T01:34:17.909Z,7.34
2022-11-14T01:36:49.044Z,7.17
2022-11-14T01:39:19.018Z,7.24
2022-11-14T01:41:49.486Z,7.04
2022-11-14T01:44:58.004Z,7.14
2022-11-14T01:47:36.175Z,7.27
2022-11-14T01:50:09.439Z,7.18
2022-11-14T01:52:43.087Z,7.26
2022-11-14T01:55:13.726Z,7.24
2022-11-14T01:57:50.204Z,7.17
2022-11-14T02:00:20.321Z,7.09
2022-11-14T02:02:53.697Z,7.13
2022-11-14T02:05:24.670Z,7.17
2022-11-14T02:07:55.234Z,7.20
2022-11-14T02:10:25.434Z,7.21
2022-11-14T02:12:56.331Z,7.18
2022-11-14T02:15:27.494Z,7.09
2022-11-14T02:18:01.226Z,7.14
2022-11-14T02:20:37.949Z,6.98
2022-11-14T02:23:08.332Z,7.08
2022-11-14T02:25:38.572Z,7.09
2022-11-14T02:28:10.293Z,7.11
2022-11-14T02:30:40.289Z,7.12
2022-11-14T02:33:11.557Z,7.09
2022-11-14T02:35:44.635Z,7.14
2022-11-14T02:38:15.088Z,7.09
2022-11-14T02:40:45.083Z,7.17
2022-11-14T02:43:15.535Z,7.17
2022-11-14T02:45:45.613Z,6.97
2022-11-14T02:48:15.973Z,7.10
2022-11-14T02:50:51.463Z,7.19
2022-11-14T02:53:21.856Z,7.08
2022-11-14T02:55:51.842Z,7.12
2022-11-14T02:58:22.229Z,7.14
2022-11-14T03:01:18.397Z,7.04
2022-11-14T03:03:42.580Z,6.96
2022-11-14T03:06:15.386Z,6.85
2022-11-14T03:08:45.833Z,6.95
2022-11-14T03:11:15.767Z,6.96
2022-11-14T03:13:46.133Z,6.95
2022-11-14T03:16:16.997Z,6.90
2022-11-14T03:18:47.360Z,6.87
2022-11-14T03:21:22.179Z,6.70
2022-11-14T03:23:52.609Z,6.85
2022-11-14T03:26:22.782Z,6.97
2022-11-14T03:28:55.075Z,6.89
2022-11-14T03:31:25.089Z,6.95
2022-11-14T03:33:55.471Z,6.95
2022-11-14T03:36:28.096Z,6.95
2022-11-14T03:38:58.801Z,6.98
2022-11-14T03:41:29.122Z,6.92
2022-11-14T03:43:59.451Z,6.94
2022-11-14T03:46:29.431Z,6.85
2022-11-14T03:48:59.830Z,6.87
2022-11-14T03:51:32.438Z,6.90
2022-11-14T03:54:02.858Z,6.87
2022-11-14T03:56:32.894Z,6.83
2022-11-14T03:59:03.326Z,6.76
2022-11-14T04:01:33.325Z,6.70
2022-11-14T04:04:03.704Z,6.73
2022-11-14T04:06:36.293Z,6.57
2022-11-14T04:09:07.446Z,6.58
2022-11-14T04:11:37.467Z,6.57
2022-11-14T04:14:08.069Z,6.61
2022-11-14T04:16:38.108Z,6.57
2022-11-14T04:19:08.746Z,6.58
2022-11-14T04:21:41.420Z,6.58
2022-11-14T04:24:13.987Z,6.65
2022-11-14T04:26:44.239Z,6.67
2022-11-14T04:29:14.772Z,6.62
2022-11-14T04:31:44.871Z,6.62
2022-11-14T04:34:15.433Z,6.63
2022-11-14T04:36:51.121Z,6.61
2022-11-14T04:39:21.850Z,6.60
2022-11-14T04:41:51.887Z,6.65
2022-11-14T04:44:22.275Z,6.65
2022-11-14T04:46:52.300Z,6.56
2022-11-14T04:49:23.169Z,6.46
2022-11-14T04:51:55.772Z,6.48
2022-11-14T04:54:26.241Z,6.51
2022-11-14T04:56:56.286Z,6.54
2022-11-14T04:59:26.724Z,6.51
2022-11-14T05:01:56.839Z,6.55
2022-11-14T05:04:27.353Z,6.43
2022-11-14T05:07:00.403Z,6.47
2022-11-14T05:09:30.974Z,6.52
2022-11-14T05:12:01.134Z,6.39
2022-11-14T05:14:31.766Z,6.40
2022-11-14T05:17:01.857Z,6.32
2022-11-14T05:19:32.304Z,6.45
2022-11-14T05:22:04.968Z,6.40
2022-11-14T05:24:35.357Z,6.37
2022-11-14T05:27:05.367Z,6.38
2022-11-14T05:29:35.604Z,6.39
2022-11-14T05:32:06.031Z,6.36
2022-11-14T05:34:36.223Z,6.44
2022-11-14T05:37:09.212Z,6.40
2022-11-14T05:39:39.459Z,6.44
2022-11-14T05:42:10.240Z,6.47
2022-11-14T05:44:40.575Z,6.47
2022-11-14T05:47:11.195Z,6.42
2022-11-14T05:49:41.195Z,6.39
2022-11-14T05:52:14.459Z,6.36
2022-11-14T05:54:44.528Z,6.42
2022-11-14T05:57:14.912Z,6.25
2022-11-14T05:59:45.038Z,6.37
2022-11-14T06:02:15.540Z,6.40
2022-11-14T06:04:45.667Z,6.42
2022-11-14T06:07:20.384Z,6.30
2022-11-14T06:09:50.634Z,6.25
2022-11-14T06:12:21.077Z,6.34
2022-11-14T06:14:51.152Z,6.31
2022-11-14T06:17:21.802Z,6.39
2022-11-14T06:19:51.829Z,6.42
2022-11-14T06:22:24.841Z,6.39
2022-11-14T06:24:54.930Z,6.20
2022-11-14T06:27:25.459Z,6.18
2022-11-14T06:29:55.502Z,6.23
2022-11-14T06:32:25.931Z,6.26
2022-11-14T06:34:56.075Z,6.26
2022-11-14T06:37:33.410Z,6.26
2022-11-14T06:40:03.766Z,6.23
2022-11-14T06:42:34.111Z,6.21
2022-11-14T06:45:04.137Z,6.08
2022-11-14T06:47:34.508Z,6.08
2022-11-14T06:50:04.594Z,6.20
2022-11-14T06:52:37.560Z,6.21
2022-11-14T06:55:08.565Z,6.22
2022-11-14T06:57:39.019Z,6.24
2022-11-14T07:00:10.841Z,6.19
2022-11-14T07:02:41.354Z,6.20
2022-11-14T07:05:11.754Z,6.14
2022-11-14T07:07:45.176Z,6.13
2022-11-14T07:10:21.500Z,6.17
2022-11-14T07:12:52.339Z,6.14
2022-11-14T07:15:22.430Z,6.17
2022-11-14T07:17:52.843Z,6.22
2022-11-14T07:20:22.935Z,6.17
2022-11-14T07:22:55.989Z,6.22
2022-11-14T07:25:26.309Z,6.08
2022-11-14T07:27:56.804Z,6.24
2022-11-14T07:30:26.822Z,6.27
2022-11-14T07:33:03.250Z,6.33
2022-11-14T07:35:44.606Z,6.40
2022-11-14T07:38:18.210Z,6.45
2022-11-14T07:41:00.172Z,6.46
2022-11-14T07:43:31.635Z,6.42
2022-11-14T07:46:02.753Z,6.43
2022-11-14T07:48:33.848Z,6.42
2022-11-14T07:51:05.866Z,6.42
2022-11-14T07:53:39.780Z,6.31
2022-11-14T07:56:13.080Z,6.24
2022-11-14T07:58:44.988Z,6.25
2022-11-14T08:01:16.674Z,6.23
2022-11-14T08:03:47.746Z,6.33
2022-11-14T08:06:19.216Z,6.42
2022-11-14T08:08:52.224Z,6.46
2022-11-14T08:11:42.416Z,6.55
2022-11-14T08:14:12.801Z,6.55
2022-11-14T08:16:42.786Z,6.58
2022-11-14T08:19:13.142Z,6.63
2022-11-14T08:21:43.239Z,6.48
2022-11-14T08:24:16.220Z,6.58
2022-11-14T08:26:46.169Z,6.58
2022-11-14T08:29:19.387Z,6.56
2022-11-14T08:31:49.683Z,6.53
2022-11-14T08:34:20.940Z,6.52
2022-11-14T08:36:51.023Z,6.51
2022-11-14T08:39:23.918Z,6.62
2022-11-14T08:41:53.908Z,6.72
2022-11-14T08:44:24.323Z,6.72
2022-11-14T08:46:54.297Z,6.82
2022-11-14T08:49:24.640Z,6.94
2022-11-14T08:51:55.029Z,6.98
2022-11-14T08:54:27.976Z,7.06
2022-11-14T08:56:57.948Z,7.04
2022-11-14T08:59:28.341Z,7.09
2022-11-14T09:01:58.312Z,7.15
2022-11-14T09:04:28.953Z,7.05
2022-11-14T09:06:59.054Z,7.04
2022-11-14T09:09:31.994Z,7.05
2022-11-14T09:12:01.948Z,7.16
2022-11-14T09:14:32.338Z,7.26
2022-11-14T09:17:05.935Z,7.40
2022-11-14T09:19:36.678Z,7.49
2022-11-14T09:22:06.689Z,7.55
2022-11-14T09:24:39.626Z,7.67
2022-11-14T09:27:09.555Z,7.76
2022-11-14T09:29:39.858Z,7.88
2022-11-14T09:32:09.856Z,8.06
2022-11-14T09:34:43.033Z,8.13
2022-11-14T09:37:13.529Z,8.19
2022-11-14T09:39:46.471Z,8.32
2022-11-14T09:42:33.789Z,8.45
2022-11-14T09:45:07.473Z,8.49
2022-11-14T09:47:42.278Z,8.57
2022-11-14T09:50:23.081Z,8.66
2022-11-14T09:52:59.280Z,8.76
2022-11-14T09:55:37.196Z,8.88
2022-11-14T09:58:11.558Z,8.95
2022-11-14T10:00:50.072Z,8.90
2022-11-14T10:03:28.834Z,9.06
2022-11-14T10:06:18.870Z,9.21
2022-11-14T10:09:00.772Z,9.52
2022-11-14T10:11:38.658Z,9.69
2022-11-14T10:14:29.598Z,9.70
2022-11-14T10:17:14.857Z,10.07
2022-11-14T10:19:52.883Z,10.04
2022-11-14T10:22:41.454Z,9.96
2022-11-14T10:25:24.069Z,10.14
2022-11-14T10:28:10.070Z,10.07
2022-11-14T10:30:44.124Z,10.19
2022-11-14T10:33:26.753Z,10.30
2022-11-14T10:36:01.683Z,10.49
2022-11-14T10:38:38.606Z,10.73
2022-11-14T10:41:28.524Z,10.87
2022-11-14T10:44:05.960Z,10.96
2022-11-14T10:46:40.716Z,10.95
2022-11-14T10:49:21.159Z,11.32
2022-11-14T10:51:54.796Z,11.67
2022-11-14T10:54:30.577Z,11.66
2022-11-14T10:57:00.594Z,11.73
2022-11-14T10:59:33.595Z,11.79
2022-11-14T11:02:03.612Z,11.80
2022-11-14T11:04:36.685Z,11.53
2022-11-14T11:07:35.306Z,12.12
2022-11-14T11:10:19.324Z,11.76
2022-11-14T11:12:51.745Z,12.38
2022-11-14T11:15:27.432Z,12.60
2022-11-14T11:17:58.602Z,12.44
2022-11-14T11:20:36.113Z,12.59
2022-11-14T11:23:07.806Z,13.10
2022-11-14T11:25:39.620Z,13.15
2022-11-14T11:28:14.183Z,12.67
2022-11-14T11:30:58.452Z,13.36
2022-11-14T11:33:31.161Z,13.11
2022-11-14T11:36:06.162Z,13.10
2022-11-14T11:38:36.731Z,12.76
2022-11-14T11:41:33.294Z,13.05
2022-11-14T11:44:13.389Z,13.60
2022-11-14T11:46:51.659Z,13.76
2022-11-14T11:49:30.945Z,13.51
2022-11-14T11:52:08.199Z,13.73
2022-11-14T11:54:51.764Z,14.00
2022-11-14T11:57:25.849Z,14.47
2022-11-14T12:00:02.185Z,15.06
2022-11-14T12:02:35.231Z,14.71
2022-11-14T12:05:05.313Z,14.84
2022-11-14T12:07:45.817Z,15.58
2022-11-14T12:10:21.584Z,15.01
2022-11-14T12:13:13.418Z,15.69
2022-11-14T12:15:55.373Z,15.29
2022-11-14T12:18:54.910Z,15.95
2022-11-14T12:21:38.394Z,16.03
2022-11-14T12:24:49.889Z,15.47
2022-11-14T12:27:28.248Z,15.47
2022-11-14T12:30:16.622Z,15.46
2022-11-14T12:32:52.333Z,16.12
2022-11-14T12:35:32.067Z,16.12
2022-11-14T12:38:05.645Z,14.67
2022-11-14T12:40:38.615Z,14.43
2022-11-14T12:43:36.026Z,14.37
2022-11-14T12:46:11.469Z,14.97
2022-11-14T12:48:42.511Z,15.83
2022-11-14T12:51:51.547Z,15.97
2022-11-14T12:54:49.664Z,14.52
2022-11-14T12:57:42.315Z,15.31
2022-11-14T13:00:13.370Z,15.53
2022-11-14T13:03:00.953Z,15.83
2022-11-14T13:05:55.335Z,14.99
2022-11-14T13:08:44.701Z,15.28
2022-11-14T13:11:55.540Z,15.82
2022-11-14T13:14:40.806Z,15.60
2022-11-14T13:17:38.263Z,15.88
2022-11-14T13:20:48.094Z,15.78
2022-11-14T13:24:02.979Z,16.48
2022-11-14T13:26:55.689Z,16.50
2022-11-14T13:30:02.091Z,16.32
2022-11-14T13:33:08.138Z,16.41
2022-11-14T13:36:00.756Z,16.41
2022-11-14T13:38:55.688Z,17.02
2022-11-14T13:41:52.736Z,16.46
2022-11-14T13:45:02.269Z,16.57
2022-11-14T13:48:01.354Z,16.61
2022-11-14T13:50:35.532Z,16.09
2022-11-14T13:53:16.481Z,16.04
2022-11-14T13:56:19.699Z,16.06
2022-11-14T13:59:18.541Z,16.01
2022-11-14T14:02:10.522Z,15.52
2022-11-14T14:04:54.467Z,15.76
2022-11-14T14:07:38.243Z,15.98
2022-11-14T14:10:23.293Z,16.04
2022-11-14T14:13:05.846Z,15.55
2022-11-14T14:15:39.833Z,15.72
2022-11-14T14:18:21.659Z,15.71
2022-11-14T14:21:03.196Z,15.62
2022-11-14T14:23:45.395Z,15.76
2022-11-14T14:26:29.099Z,15.37
2022-11-14T14:29:07.290Z,15.62
2022-11-14T14:31:39.847Z,15.58
2022-11-14T14:34:25.572Z,15.89
2022-11-14T14:37:00.813Z,15.80
2022-11-14T14:39:32.036Z,15.75
2022-11-14T14:42:02.650Z,15.76
2022-11-14T14:44:39.773Z,15.56
2022-11-14T14:47:20.696Z,15.04
2022-11-14T14:49:50.893Z,14.86
2022-11-14T14:52:32.156Z,14.99
2022-11-14T14:55:13.643Z,15.13
2022-11-14T14:57:46.096Z,14.61
2022-11-14T15:00:29.701Z,14.46
2022-11-14T15:03:01.484Z,14.39
2022-11-14T15:05:32.885Z,14.24
2022-11-14T15:08:06.776Z,14.18
2022-11-14T15:10:37.768Z,14.26
2022-11-14T15:13:08.734Z,13.93
2022-11-14T15:15:43.563Z,13.86
2022-11-14T15:18:23.103Z,13.62
2022-11-14T15:21:11.877Z,13.52
2022-11-14T15:23:45.439Z,13.70
2022-11-14T15:26:20.838Z,13.95
2022-11-14T15:28:51.267Z,13.44
2022-11-14T15:31:28.658Z,13.65
2022-11-14T15:34:08.272Z,13.45
2022-11-14T15:36:38.654Z,13.26
2022-11-14T15:39:27.356Z,13.57
2022-11-14T15:42:15.111Z,13.23
2022-11-14T15:44:47.171Z,13.35
2022-11-14T15:47:26.952Z,13.45
2022-11-14T15:50:05.268Z,13.21
2022-11-14T15:52:37.798Z,12.86
2022-11-14T15:55:17.615Z,13.04
2022-11-14T15:57:52.064Z,13.02
2022-11-14T16:00:31.555Z,12.82
2022-11-14T16:03:02.060Z,13.09
2022-11-14T16:05:33.730Z,12.71
2022-11-14T16:08:07.167Z,12.71
2022-11-14T16:10:41.550Z,12.69
2022-11-14T16:13:11.707Z,12.38
2022-11-14T16:15:42.158Z,12.38
2022-11-14T16:18:16.737Z,12.39
2022-11-14T16:20:47.174Z,12.41
2022-11-14T16:23:19.375Z,12.23
2022-11-14T16:25:55.345Z,12.19
2022-11-14T16:28:25.359Z,12.26
2022-11-14T16:30:55.838Z,12.19
2022-11-14T16:33:26.115Z,12.11
2022-11-14T16:35:56.398Z,12.22
2022-11-14T16:38:26.386Z,12.13
2022-11-14T16:41:00.256Z,12.26
2022-11-14T16:43:30.654Z,12.14
2022-11-14T16:46:01.377Z,12.22
2022-11-14T16:48:31.443Z,12.30
2022-11-14T16:51:14.872Z,12.23
2022-11-14T16:53:52.065Z,12.07
2022-11-14T16:56:25.249Z,12.26
2022-11-14T16:58:57.355Z,12.12
2022-11-14T17:01:27.809Z,11.79
2022-11-14T17:04:00.090Z,11.81
2022-11-14T17:06:30.949Z,11.75
2022-11-14T17:09:02.601Z,11.77
2022-11-14T17:11:36.252Z,11.86
2022-11-14T17:14:06.712Z,11.60
2022-11-14T17:16:37.551Z,11.71
2022-11-14T17:19:08.588Z,11.51
2022-11-14T17:21:39.247Z,11.49
2022-11-14T17:24:10.282Z,11.55
2022-11-14T17:26:43.939Z,11.38
2022-11-14T17:29:14.725Z,11.56
2022-11-14T17:31:47.178Z,11.62
2022-11-14T17:34:17.832Z,11.62
2022-11-14T17:36:48.582Z,11.69
2022-11-14T17:39:19.651Z,11.65
2022-11-14T17:41:53.007Z,11.33
2022-11-14T17:44:23.428Z,11.07
2022-11-14T17:46:54.217Z,11.24
2022-11-14T17:49:24.383Z,10.91
2022-11-14T17:51:54.769Z,11.09
2022-11-14T17:54:24.752Z,11.02
2022-11-14T17:56:59.010Z,11.21
2022-11-14T17:59:29.129Z,11.18
2022-11-14T18:02:00.383Z,11.13
2022-11-14T18:04:31.578Z,11.06
2022-11-14T18:07:02.091Z,10.88
2022-11-14T18:09:32.210Z,10.92
2022-11-14T18:12:05.381Z,10.81
2022-11-14T18:14:35.631Z,10.97
2022-11-14T18:17:12.776Z,10.87
2022-11-14T18:19:43.664Z,10.68
2022-11-14T18:22:14.512Z,10.56
2022-11-14T18:25:08.151Z,10.69
2022-11-14T18:27:54.829Z,10.75
2022-11-14T18:30:40.975Z,10.56
2022-11-14T18:33:12.452Z,10.37
2022-11-14T18:35:42.829Z,10.61
2022-11-14T18:38:13.902Z,10.43
2022-11-14T18:40:47.375Z,10.29
2022-11-14T18:43:24.474Z,10.16
2022-11-14T18:45:55.158Z,10.25
2022-11-14T18:48:25.853Z,10.12
2022-11-14T18:51:04.267Z,10.15
2022-11-14T18:53:35.411Z,10.08
2022-11-14T18:56:09.467Z,9.89
2022-11-14T18:58:43.786Z,9.90
2022-11-14T19:01:15.049Z,9.82
2022-11-14T19:03:46.512Z,9.76
2022-11-14T19:06:17.040Z,9.61
2022-11-14T19:08:47.675Z,9.55
2022-11-14T19:11:32.119Z,9.55
2022-11-14T19:14:08.664Z,9.50
2022-11-14T19:16:40.403Z,9.47
2022-11-14T19:19:11.558Z,9.30
2022-11-14T19:21:42.143Z,9.41
2022-11-14T19:24:13.324Z,9.50
2022-11-14T19:26:43.288Z,9.37
2022-11-14T19:29:16.267Z,9.34
2022-11-14T19:31:46.445Z,9.26
2022-11-14T19:34:17.881Z,9.40
2022-11-14T19:37:03.230Z,9.39
2022-11-14T19:39:36.623Z,9.24
2022-11-14T19:42:06.919Z,9.28
2022-11-14T19:44:40.796Z,9.26
2022-11-14T19:47:11.818Z,9.29
2022-11-14T19:49:42.928Z,9.35
2022-11-14T19:52:14.171Z,9.15
2022-11-14T19:54:47.137Z,9.13
2022-11-14T19:57:17.868Z,9.02
2022-11-14T19:59:52.499Z,8.88
2022-11-14T20:02:22.936Z,8.86
2022-11-14T20:04:54.928Z,8.79
2022-11-14T20:07:26.219Z,8.79
2022-11-14T20:09:57.070Z,8.79
2022-11-14T20:12:35.650Z,8.88
2022-11-14T20:15:28.398Z,8.88
2022-11-14T20:18:00.463Z,8.91
2022-11-14T20:20:34.816Z,8.86
2022-11-14T20:23:06.306Z,8.76
2022-11-14T20:25:39.260Z,8.80
2022-11-14T20:28:15.490Z,8.88
2022-11-14T20:30:51.320Z,8.83
2022-11-14T20:33:22.617Z,8.67
2022-11-14T20:35:53.376Z,8.74
2022-11-14T20:38:25.115Z,8.75
2022-11-14T20:41:04.320Z,8.81
2022-11-14T20:43:37.041Z,8.62
2022-11-14T20:46:22.708Z,8.63
2022-11-14T20:48:55.016Z,8.76
2022-11-14T20:51:28.456Z,8.58
2022-11-14T20:53:59.320Z,8.70
2022-11-14T20:56:32.877Z,8.77
2022-11-14T20:59:03.010Z,8.46
2022-11-14T21:01:42.096Z,8.55
2022-11-14T21:04:14.242Z,8.42
2022-11-14T21:06:47.189Z,8.40
2022-11-14T21:09:17.727Z,8.35
2022-11-14T21:11:50.802Z,8.39
2022-11-14T21:14:23.253Z,8.35
2022-11-14T21:16:58.718Z,8.36
2022-11-14T21:19:29.225Z,8.41
2022-11-14T21:21:59.571Z,8.41
2022-11-14T21:24:29.620Z,8.17
2022-11-14T21:26:59.937Z,8.15
2022-11-14T21:29:32.146Z,8.10
2022-11-14T21:32:05.422Z,8.09
2022-11-14T21:34:36.063Z,8.00
2022-11-14T21:37:09.194Z,8.07
2022-11-14T21:39:39.205Z,8.16
2022-11-14T21:42:12.899Z,8.17
2022-11-14T21:44:45.670Z,8.03
2022-11-14T21:47:19.033Z,8.09
2022-11-14T21:49:52.090Z,7.96
2022-11-14T21:52:23.814Z,7.98
2022-11-14T21:54:54.004Z,8.00
2022-11-14T21:57:24.395Z,7.90
2022-11-14T21:59:54.686Z,7.91
2022-11-14T22:02:40.325Z,7.81
2022-11-14T22:05:11.243Z,7.87
2022-11-14T22:07:43.287Z,7.78
2022-11-14T22:10:13.277Z,7.77
2022-11-14T22:12:43.566Z,7.61
2022-11-14T22:15:16.410Z,7.56
2022-11-14T22:17:49.954Z,7.53
2022-11-14T22:20:23.393Z,7.59
2022-11-14T22:22:57.336Z,7.38
2022-11-14T22:25:27.329Z,7.47
2022-11-14T22:27:58.000Z,7.43
2022-11-14T22:30:28.119Z,7.38
2022-11-14T22:33:02.456Z,7.38
2022-11-14T22:35:37.564Z,7.54
2022-11-14T22:38:08.060Z,7.41
2022-11-14T22:40:39.121Z,7.39
2022-11-14T22:43:09.467Z,7.41
2022-11-14T22:45:39.458Z,7.34
2022-11-14T22:48:12.446Z,7.39
2022-11-14T22:50:49.697Z,7.34
2022-11-14T22:53:20.176Z,7.32
2022-11-14T22:55:51.143Z,7.29
2022-11-14T22:58:21.566Z,7.28
2022-11-14T23:00:51.945Z,7.14
2022-11-14T23:03:26.806Z,7.26
2022-11-14T23:05:57.137Z,7.27
2022-11-14T23:08:27.493Z,7.17
2022-11-14T23:11:00.383Z,7.17
2022-11-14T23:13:31.339Z,7.09
2022-11-14T23:16:01.730Z,7.02
2022-11-14T23:18:34.949Z,6.95
2022-11-14T23:21:08.923Z,6.97
2022-11-14T23:23:39.617Z,6.88
2022-11-14T23:26:12.223Z,6.96
2022-11-14T23:28:43.305Z,6.93
2022-11-14T23:31:18.989Z,6.90
2022-11-14T23:33:55.965Z,6.86
2022-11-14T23:36:26.184Z,6.80
2022-11-14T23:38:57.174Z,6.81
2022-11-14T23:41:28.343Z,6.90
2022-11-14T23:43:58.890Z,6.85
2022-11-14T23:46:29.273Z,6.91
2022-11-14T23:49:02.451Z,6.86
2022-11-14T23:51:33.114Z,6.86
2022-11-14T23:54:03.595Z,6.88
2022-11-14T23:56:34.059Z,6.85
2022-11-14T23:59:04.383Z,6.88
